Date,TemperatureHighF,TemperatureAvgF,TemperatureLowF,DewpointHighF,DewpointAvgF,DewpointLowF,HumidityHigh,HumidityAvg,HumidityLow,PressureMaxIn,PressureMinIn,WindSpeedMaxMPH,WindSpeedAvgMPH,GustSpeedMaxMPH,PrecipitationSumIn
2013-4-1,61,47,34,47,38,16,98,73,42,29.72,29.43,17,3,24,0.20
2013-4-2,41,34,28,19,16,12,61,47,35,29.86,29.72,16,4,25,0.00
2013-4-3,47,36,28,18,16,12,60,44,27,30.09,29.85,16,4,25,0.00
2013-4-4,55,41,27,24,19,16,67,44,25,30.24,29.97,9,1,12,0.00
2013-4-5,59,45,36,30,27,23,73,52,29,29.97,29.55,0,0,0,0.00
2013-4-6,45,37,30,24,15,10,58,41,25,30.27,29.82,0,0,0,0.00
2013-4-7,56,42,26,39,27,15,81,59,32,30.27,29.92,0,0,0,0.00
2013-4-8,63,46,0,44,39,36,97,67,37,30.02,29.89,5,0,9,0.00
2013-4-9,70,56,46,53,44,39,93,68,43,30.01,29.78,10,2,20,0.02
2013-4-10,61,51,45,50,46,42,96,84,64,29.96,29.78,7,1,9,0.28
2013-4-11,53,47,41,47,41,28,100,82,52,30.08,29.77,3,0,6,0.09
2013-4-12,41,38,36,38,35,32,100,91,75,30.11,29.74,14,1,18,0.52
2013-4-13,52,42,35,42,38,35,100,86,61,29.86,29.72,7,2,13,0.09
2013-4-14,54,45,36,41,35,28,94,69,45,30.15,29.84,10,2,17,0.00
2013-4-15,58,44,31,38,34,28,93,70,40,30.32,30.15,9,1,17,0.00
2013-4-16,66,52,38,51,43,36,95,72,48,30.34,29.97,19,4,26,0.00
2013-4-17,66,57,45,53,39,30,89,53,30,30.26,29.98,10,3,18,0.00
2013-4-18,62,51,38,44,34,29,78,55,37,30.37,30.07,12,2,19,0.00
2013-4-19,74,62,52,63,57,44,98,82,60,30.08,29.55,20,5,30,0.00
2013-4-20,66,54,43,63,44,27,99,72,45,30.14,29.51,16,4,21,0.54
2013-4-21,53,43,33,29,25,21,78,51,30,30.61,30.15,10,2,19,0.00
2013-4-22,54,42,31,36,31,27,93,68,37,30.70,30.54,15,2,18,0.00
2013-4-23,42,39,35,41,37,30,100,93,80,30.54,30.07,9,3,18,0.04
2013-4-24,73,56,41,55,46,41,100,74,32,30.07,29.69,16,4,21,0.01
2013-4-25,64,55,43,52,39,29,92,58,32,30.21,29.74,12,2,20,0.03
2013-4-26,63,50,36,38,35,30,86,59,37,30.36,30.21,9,1,14,0.00
2013-4-27,66,52,37,41,37,34,94,61,36,30.36,30.20,7,1,16,0.00
2013-4-28,71,54,38,44,37,30,91,57,32,30.28,30.14,14,2,17,0.00
2013-4-29,71,57,46,49,39,29,84,53,32,30.21,30.09,14,2,20,0.00
2013-4-30,70,57,45,37,32,25,68,41,23,30.30,30.18,6,0,12,0.00